KGNV/GNV METAR and TAF weather

Enter ICAO airport designator
Station Type Date Time Source
KGNV METAR 2020/02/25 13:12 UTC NOAA

KGNV 251312Z 06003KT 2SM RA BR BKN022 BKN029 OVC045 17/16 A2997 RMK AO2 P0012 T01670161


Station Type Date Time Source
KGNV Decoded METAR 2020/02/25 13:12 UTC NOAA

GAINESVILLE REGIONAL AIRPORT , FL, United States (KGNV) 29-42N 082-17W 45M
Feb 25, 2020 - 08:12 AM EST / 2020.02.25 1312 UTC
Wind: from the ENE (060 degrees) at 3 MPH (3 KT):0
Visibility: 2 mile(s):0
Sky conditions: overcast
Weather: rain; mist
Precipitation last hour: 0.12 inches
Temperature: 62.1 F (16.7 C)
Dew Point: 61.0 F (16.1 C)
Relative Humidity: 96%
Pressure (altimeter): 29.97 in. Hg (1014 hPa)
ob: KGNV 251312Z 06003KT 2SM RA BR BKN022 BKN029 OVC045 17/16 A2997 RMK AO2 P0012 T01670161
cycle: 13

Station Type Date Time Source
KGNV TAF 2020/02/25 13:34 UTC NOAA

TAF
AMD KGNV 251232Z 2513/2612 18008KT 6SM SHRA BKN025 OVC050 WS020/20040KT
TEMPO 2513/2514 3SM TSRA OVC025CB
FM251800 20007KT 5SM +SHRA BR VCTS BKN015CB OVC025
FM260000 19005KT 4SM SHRA BR BKN008 OVC015
FM260400 19004KT 2SM -RADZ BR OVC005

Example: see airport list